Date,TemperatureHighF,TemperatureAvgF,TemperatureLowF,DewpointHighF,DewpointAvgF,DewpointLowF,HumidityHigh,HumidityAvg,HumidityLow,PressureMaxIn,PressureMinIn,WindSpeedMaxMPH,WindSpeedAvgMPH,GustSpeedMaxMPH,PrecipitationSumIn
2013-12-1,44.1,40.7,35.0,43.9,37.2,26.8,100,88,69,30.35,30.00,16,3,16,0.29
2013-12-2,49.9,46.2,41.2,49.9,46.2,41.2,100,100,100,30.00,29.83,8,0,8,0.17
2013-12-3,46.0,43.4,38.8,46.0,43.4,38.1,100,100,97,29.83,29.72,8,0,8,0.00
2013-12-4,41.5,37.1,31.0,38.4,31.8,27.3,97,81,69,30.12,29.73,7,0,7,0.00
2013-12-5,54.4,42.0,30.9,54.4,41.0,27.3,100,97,86,30.19,29.84,12,1,12,0.03
2013-12-6,54.7,48.4,41.6,54.7,47.5,34.2,100,97,75,30.01,29.75,11,1,11,0.04
2013-12-7,41.5,33.9,26.4,36.6,23.7,13.2,100,67,51,30.29,29.97,12,0,12,0.02
2013-12-8,28.5,25.5,23.5,16.4,12.3,9.2,65,57,48,30.51,30.29,8,0,8,0.00
2013-12-9,42.8,31.8,23.5,42.6,25.4,8.1,100,79,51,30.47,29.72,11,0,11,0.21
2013-12-10,40.6,33.7,25.1,39.2,31.5,15.0,100,92,65,29.77,29.61,10,1,10,0.01
2013-12-11,29.7,26.7,23.8,17.3,14.3,11.1,71,59,48,30.01,29.76,21,5,21,0.00
2013-12-12,23.8,17.6,13.8,13.4,5.2,-3.1,69,58,45,30.13,29.89,16,2,16,0.00
2013-12-13,24.1,18.9,7.6,13.9,5.1,-4.3,71,55,35,30.28,29.78,21,5,21,0.00
2013-12-14,14.6,8.6,2.6,9.3,-3.7,-9.7,80,57,37,30.53,30.28,10,1,10,0.00
2013-12-15,35.8,23.4,14.4,35.8,22.3,9.3,100,96,80,30.33,29.20,16,2,16,0.00
2013-12-16,26.4,19.1,8.3,25.9,14.8,2.0,100,83,60,30.09,29.54,14,1,17,0.00
2013-12-17,21.6,11.4,1.1,21.4,6.4,-4.8,99,80,70,30.23,29.93,5,0,5,0.00
2013-12-18,26.1,23.3,21.0,26.1,22.6,19.6,100,97,91,29.93,29.72,5,0,5,0.00
2013-12-19,34.4,30.5,24.8,29.6,26.4,21.4,95,85,77,30.01,29.82,11,3,11,0.01
2013-12-20,42.1,36.3,31.0,42.1,36.0,28.8,100,99,86,30.07,29.83,1,0,2,0.25
2013-12-21,42.8,39.0,36.9,42.8,39.0,36.9,100,100,100,29.89,29.75,3,0,3,0.31
2013-12-22,39.3,37.3,35.6,39.3,37.3,35.6,100,100,100,30.01,29.80,6,0,6,0.31
2013-12-23,39.1,37.5,35.0,39.1,37.5,35.0,100,100,100,30.03,29.89,3,0,3,0.10
2013-12-24,38.9,27.4,16.1,38.9,25.2,11.0,100,91,80,30.06,29.97,6,0,7,0.00
2013-12-25,16.4,13.6,11.7,11.7,8.4,6.5,82,79,78,30.28,30.06,13,3,13,0.00
2013-12-30,34.6,20.9,8.4,34.6,16.5,1.7,100,83,74,30.08,29.65,7,0,7,0.00
2013-12-31,12.1,8.1,3.4,9.0,2.5,-2.2,95,78,63,30.10,29.96,6,0,7,0.00